createdAt,value
2022-08-05T00:00:46.749Z,38.88
2022-08-05T00:03:19.114Z,38.76
2022-08-05T00:06:06.486Z,39.02
2022-08-05T00:08:36.718Z,39.10
2022-08-05T00:11:20.666Z,39.49
2022-08-05T00:13:56.629Z,39.67
2022-08-05T00:16:36.122Z,39.98
2022-08-05T00:19:06.469Z,39.83
2022-08-05T00:21:35.751Z,39.97
2022-08-05T00:24:10.898Z,40.37
2022-08-05T00:26:46.741Z,40.18
2022-08-05T00:29:22.526Z,40.43
2022-08-05T00:32:13.295Z,40.46
2022-08-05T00:35:03.941Z,40.60
2022-08-05T00:37:51.098Z,40.58
2022-08-05T00:40:28.476Z,40.81
2022-08-05T00:42:59.186Z,40.87
2022-08-05T00:45:37.803Z,41.05
2022-08-05T00:48:10.112Z,41.02
2022-08-05T00:50:39.301Z,41.23
2022-08-05T00:54:00.466Z,41.42
2022-08-05T00:55:59.317Z,41.34
2022-08-05T00:58:29.186Z,41.16
2022-08-05T01:00:57.751Z,41.37
2022-08-05T01:03:31.105Z,41.37
2022-08-05T01:06:05.380Z,41.41
2022-08-05T01:08:42.973Z,41.44
2022-08-05T01:11:21.839Z,41.81
2022-08-05T01:14:02.115Z,42.00
2022-08-05T01:16:40.325Z,42.07
2022-08-05T01:19:30.139Z,42.34
2022-08-05T01:22:28.108Z,42.44
2022-08-05T01:25:40.176Z,42.68
2022-08-05T01:28:25.983Z,42.51
2022-08-05T01:30:58.641Z,42.42
2022-08-05T01:33:36.855Z,42.72
2022-08-05T01:36:13.061Z,42.83
2022-08-05T01:38:48.448Z,42.65
2022-08-05T01:41:25.679Z,42.87
2022-08-05T01:43:57.175Z,43.25
2022-08-05T01:46:41.545Z,43.19
2022-08-05T01:49:23.406Z,43.21
2022-08-05T01:51:56.496Z,43.27
2022-08-05T01:54:31.134Z,43.28
2022-08-05T01:58:10.810Z,43.34
2022-08-05T01:59:54.306Z,43.31
2022-08-05T02:02:28.532Z,43.37
2022-08-05T02:05:01.642Z,43.46
2022-08-05T02:07:32.645Z,43.50
2022-08-05T02:10:02.621Z,43.56
2022-08-05T02:12:38.812Z,43.47
2022-08-05T02:15:15.699Z,43.72
2022-08-05T02:18:31.170Z,43.73
2022-08-05T02:20:49.321Z,43.52
2022-08-05T02:23:22.525Z,43.83
2022-08-05T02:25:53.145Z,43.90
2022-08-05T02:28:31.119Z,43.94
2022-08-05T02:31:13.817Z,43.89
2022-08-05T02:33:49.448Z,43.71
2022-08-05T02:36:31.358Z,43.83
2022-08-05T02:39:03.745Z,44.05
2022-08-05T02:41:57.734Z,44.39
2022-08-05T02:44:28.819Z,44.58
2022-08-05T02:47:01.109Z,44.75
2022-08-05T02:49:36.852Z,44.71
2022-08-05T02:52:10.065Z,44.52
2022-08-05T02:54:42.697Z,44.54
2022-08-05T02:58:10.335Z,44.46
2022-08-05T03:00:13.589Z,44.40
2022-08-05T03:02:45.381Z,44.35
2022-08-05T03:05:15.724Z,44.38
2022-08-05T03:08:06.639Z,44.49
2022-08-05T03:10:34.317Z,44.64
2022-08-05T03:15:30.112Z,44.66
2022-08-05T03:18:03.813Z,44.91
2022-08-05T03:20:36.429Z,44.78
2022-08-05T03:23:07.065Z,44.92
2022-08-05T03:26:30.133Z,44.90
2022-08-05T03:28:26.698Z,44.81
2022-08-05T03:30:56.673Z,44.87
2022-08-05T03:33:49.240Z,44.89
2022-08-05T03:36:18.217Z,44.73
2022-08-05T03:38:59.127Z,44.81
2022-08-05T03:41:33.182Z,44.94
2022-08-05T03:44:10.991Z,45.04
2022-08-05T03:46:40.741Z,45.36
2022-08-05T03:49:10.592Z,45.61
2022-08-05T03:52:48.657Z,45.78
2022-08-05T03:55:49.691Z,46.15
2022-08-05T03:57:41.610Z,46.38
2022-08-05T04:00:15.566Z,46.79
2022-08-05T04:02:57.519Z,47.33
2022-08-05T04:05:33.766Z,47.54
2022-08-05T04:08:14.614Z,47.71
2022-08-05T04:10:56.470Z,47.73
2022-08-05T04:13:49.372Z,48.05
2022-08-05T04:16:15.659Z,48.22
2022-08-05T04:18:54.138Z,48.23
2022-08-05T04:22:08.789Z,48.40
2022-08-05T04:24:18.691Z,48.75
2022-08-05T04:26:48.364Z,48.73
2022-08-05T04:29:17.171Z,48.98
2022-08-05T04:31:46.285Z,49.05
2022-08-05T04:34:31.630Z,49.19
2022-08-05T04:37:03.732Z,49.28
2022-08-05T04:39:35.490Z,49.29
2022-08-05T04:42:04.924Z,49.53
2022-08-05T04:44:33.515Z,49.46
2022-08-05T04:47:09.900Z,49.67
2022-08-05T04:50:01.574Z,49.68
2022-08-05T04:52:33.435Z,49.70
2022-08-05T04:55:09.576Z,49.75
2022-08-05T04:57:47.523Z,49.69
2022-08-05T05:00:17.771Z,49.77
2022-08-05T05:02:46.458Z,49.89
2022-08-05T05:05:25.939Z,49.79
2022-08-05T05:08:00.790Z,49.94
2022-08-05T05:10:30.001Z,49.92
2022-08-05T05:12:58.902Z,50.25
2022-08-05T05:15:57.003Z,50.27
2022-08-05T05:18:31.483Z,50.32
2022-08-05T05:21:03.223Z,50.89
2022-08-05T05:24:01.876Z,50.57
2022-08-05T05:26:28.184Z,51.00
2022-08-05T05:29:01.288Z,51.29
2022-08-05T05:34:02.561Z,51.96
2022-08-05T05:36:32.383Z,52.06
2022-08-05T05:39:05.443Z,52.25
2022-08-05T05:41:39.946Z,52.55
2022-08-05T05:44:36.078Z,52.70
2022-08-05T05:46:58.407Z,52.64
2022-08-05T05:49:33.470Z,52.73
2022-08-05T05:52:05.937Z,52.98
2022-08-05T05:54:50.915Z,52.85
2022-08-05T05:57:19.856Z,53.16
2022-08-05T05:59:48.774Z,52.93
2022-08-05T06:02:32.870Z,52.85
2022-08-05T06:05:10.457Z,52.96
2022-08-05T06:08:01.121Z,53.05
2022-08-05T06:10:34.581Z,53.19
2022-08-05T06:13:06.449Z,52.69
2022-08-05T06:16:30.073Z,52.66
2022-08-05T06:18:31.196Z,52.67
2022-08-05T06:21:00.757Z,52.30
2022-08-05T06:23:43.777Z,52.25
2022-08-05T06:26:21.521Z,52.03
2022-08-05T06:28:52.591Z,51.69
2022-08-05T06:31:22.091Z,51.81
2022-08-05T06:34:06.792Z,51.33
2022-08-05T06:36:37.383Z,51.06
2022-08-05T06:39:26.940Z,50.72
2022-08-05T06:41:58.857Z,50.51
2022-08-05T06:44:27.869Z,50.31
2022-08-05T06:46:56.712Z,50.03
2022-08-05T06:50:00.058Z,49.72
2022-08-05T06:52:37.872Z,49.38
2022-08-05T06:55:03.862Z,48.82
2022-08-05T06:58:03.890Z,48.59
2022-08-05T07:00:24.902Z,47.95
2022-08-05T07:02:54.630Z,47.09
2022-08-05T07:05:31.823Z,46.67
2022-08-05T07:08:10.627Z,46.64
2022-08-05T07:10:52.919Z,46.20
2022-08-05T07:13:59.530Z,45.91
2022-08-05T07:17:58.837Z,45.78
2022-08-05T07:20:23.093Z,45.44
2022-08-05T07:22:28.482Z,45.40
2022-08-05T07:24:59.797Z,44.98
2022-08-05T07:27:57.304Z,44.87
2022-08-05T07:30:32.764Z,44.99
2022-08-05T07:33:05.171Z,44.65
2022-08-05T07:36:02.192Z,44.85
2022-08-05T07:38:33.509Z,44.93
2022-08-05T07:42:08.865Z,44.83
2022-08-05T07:43:56.280Z,45.16
2022-08-05T07:46:27.312Z,46.58
2022-08-05T07:49:04.307Z,47.04
2022-08-05T07:51:40.874Z,48.09
2022-08-05T07:54:26.502Z,48.46
2022-08-05T07:57:02.086Z,49.22
2022-08-05T07:59:44.481Z,49.71
2022-08-05T08:02:18.077Z,50.37
2022-08-05T08:04:50.361Z,50.92
2022-08-05T08:07:22.685Z,50.88
2022-08-05T08:09:55.162Z,50.64
2022-08-05T08:12:36.993Z,50.43
2022-08-05T08:15:15.038Z,50.35
2022-08-05T08:17:52.873Z,50.43
2022-08-05T08:20:44.015Z,51.08
2022-08-05T08:24:03.400Z,51.41
2022-08-05T08:26:04.700Z,51.03
2022-08-05T08:28:36.886Z,51.17
2022-08-05T08:31:15.025Z,50.93
2022-08-05T08:33:51.562Z,50.55
2022-08-05T08:36:39.262Z,50.77
2022-08-05T08:39:15.792Z,50.47
2022-08-05T08:41:52.656Z,50.43
2022-08-05T08:45:23.785Z,51.38
2022-08-05T08:48:06.656Z,50.75
2022-08-05T08:50:31.062Z,50.33
2022-08-05T08:53:08.195Z,50.13
2022-08-05T08:56:05.231Z,50.35
2022-08-05T08:58:43.839Z,49.83
2022-08-05T09:01:18.112Z,49.43
2022-08-05T09:03:55.207Z,49.89
2022-08-05T09:06:29.449Z,49.42
2022-08-05T09:08:59.732Z,49.07
2022-08-05T09:11:51.415Z,48.87
2022-08-05T09:14:57.192Z,48.60
2022-08-05T09:17:15.946Z,48.18
2022-08-05T09:20:02.367Z,47.34
2022-08-05T09:23:07.933Z,46.87
2022-08-05T09:26:03.156Z,46.30
2022-08-05T09:28:32.282Z,46.14
2022-08-05T09:31:43.176Z,45.84
2022-08-05T09:33:56.384Z,45.50
2022-08-05T09:36:27.903Z,45.61
2022-08-05T09:39:18.239Z,44.62
2022-08-05T09:41:58.438Z,44.49
2022-08-05T09:44:38.254Z,42.59
2022-08-05T09:47:12.728Z,42.77
2022-08-05T09:50:00.991Z,41.97
2022-08-05T09:52:32.884Z,41.73
2022-08-05T09:55:55.541Z,41.09
2022-08-05T09:57:58.564Z,41.29
2022-08-05T10:00:27.846Z,41.48
2022-08-05T10:02:59.471Z,41.35
2022-08-05T10:05:32.701Z,40.77
2022-08-05T10:08:34.631Z,40.61
2022-08-05T10:10:54.906Z,40.25
2022-08-05T10:13:45.551Z,40.13
2022-08-05T10:16:41.751Z,39.87
2022-08-05T10:19:23.738Z,39.77
2022-08-05T10:22:01.276Z,39.15
2022-08-05T10:24:30.012Z,38.84
2022-08-05T10:27:02.709Z,38.37
2022-08-05T10:30:06.853Z,37.45
2022-08-05T10:32:53.303Z,37.69
2022-08-05T10:35:14.182Z,37.18
2022-08-05T10:37:44.999Z,37.68
2022-08-05T10:40:28.004Z,37.44
2022-08-05T10:43:04.684Z,37.35
2022-08-05T10:45:40.442Z,37.04
2022-08-05T10:48:39.631Z,37.50
2022-08-05T10:51:29.241Z,37.22
2022-08-05T10:54:23.158Z,36.88
2022-08-05T10:56:52.884Z,36.90
2022-08-05T11:00:03.437Z,36.83
2022-08-05T11:02:37.500Z,36.98
2022-08-05T11:05:08.534Z,37.12
2022-08-05T11:08:02.463Z,36.43
2022-08-05T11:10:37.392Z,36.56
2022-08-05T11:13:07.694Z,36.56
2022-08-05T11:15:59.352Z,36.17
2022-08-05T11:18:32.646Z,35.75
2022-08-05T11:21:11.342Z,35.60
2022-08-05T11:24:03.875Z,35.11
2022-08-05T11:26:33.731Z,35.19
2022-08-05T11:29:12.311Z,34.69
2022-08-05T11:31:58.789Z,34.44
2022-08-05T11:34:38.937Z,33.86
2022-08-05T11:38:30.195Z,33.41
2022-08-05T11:40:03.280Z,32.94
2022-08-05T11:42:40.356Z,32.99
2022-08-05T11:45:22.941Z,32.99
2022-08-05T11:48:01.057Z,33.12
2022-08-05T11:50:30.030Z,33.18
2022-08-05T11:53:06.299Z,33.00
2022-08-05T11:55:38.439Z,32.64
2022-08-05T11:58:09.112Z,32.62
2022-08-05T12:00:41.121Z,32.20
2022-08-05T12:03:28.710Z,31.50
2022-08-05T12:06:09.856Z,31.63
2022-08-05T12:08:49.741Z,31.75
2022-08-05T12:11:22.549Z,31.55
2022-08-05T12:14:03.936Z,31.52
2022-08-05T12:16:38.530Z,31.42
2022-08-05T12:20:16.905Z,31.56
2022-08-05T12:21:59.799Z,31.97
2022-08-05T12:24:29.996Z,32.07
2022-08-05T12:26:58.993Z,31.97
2022-08-05T12:29:38.783Z,32.03
2022-08-05T12:32:09.771Z,32.33
2022-08-05T12:34:40.225Z,32.11
2022-08-05T12:37:16.223Z,32.48
2022-08-05T12:39:51.048Z,32.53
2022-08-05T12:42:21.829Z,32.45
2022-08-05T12:44:54.016Z,32.56
2022-08-05T12:47:32.292Z,32.35
2022-08-05T12:50:15.275Z,32.34
2022-08-05T12:52:55.381Z,31.97
2022-08-05T12:55:28.725Z,31.73
2022-08-05T12:58:49.150Z,31.66
2022-08-05T13:02:01.801Z,31.59
2022-08-05T13:03:42.925Z,31.88
2022-08-05T13:06:19.864Z,31.28
2022-08-05T13:08:52.300Z,30.92
2022-08-05T13:12:01.716Z,31.50
2022-08-05T13:14:24.732Z,31.71
2022-08-05T13:17:10.629Z,31.53
2022-08-05T13:19:51.927Z,31.39
2022-08-05T13:22:29.417Z,31.21
2022-08-05T13:25:00.681Z,31.06
2022-08-05T13:27:38.148Z,30.95
2022-08-05T13:30:36.809Z,30.73
2022-08-05T13:33:01.203Z,30.90
2022-08-05T13:35:42.877Z,30.82
2022-08-05T13:38:28.193Z,30.92
2022-08-05T13:41:00.611Z,30.56
2022-08-05T13:43:45.411Z,31.21
2022-08-05T13:46:30.671Z,31.40
2022-08-05T13:49:10.087Z,31.85
2022-08-05T13:51:41.510Z,31.67
2022-08-05T13:54:15.036Z,31.73
2022-08-05T13:56:45.252Z,31.82
2022-08-05T13:59:21.136Z,31.54
2022-08-05T14:01:59.235Z,31.80
2022-08-05T14:04:50.068Z,31.73
2022-08-05T14:07:26.084Z,31.93
2022-08-05T14:10:13.376Z,32.10
2022-08-05T14:12:48.458Z,32.40
2022-08-05T14:16:04.519Z,32.09
2022-08-05T14:18:15.232Z,32.22
2022-08-05T14:20:48.487Z,32.79
2022-08-05T14:23:23.822Z,32.86
2022-08-05T14:25:59.031Z,33.28
2022-08-05T14:28:29.562Z,32.72
2022-08-05T14:30:58.791Z,32.93
2022-08-05T14:33:27.403Z,32.75
2022-08-05T14:36:02.488Z,32.91
2022-08-05T14:38:34.291Z,33.13
2022-08-05T14:41:07.887Z,33.48
2022-08-05T14:44:02.529Z,33.79
2022-08-05T14:46:29.686Z,33.82
2022-08-05T14:49:06.379Z,33.93
2022-08-05T14:51:37.620Z,34.19
2022-08-05T14:54:28.817Z,34.40
2022-08-05T14:56:57.595Z,34.56
2022-08-05T14:59:29.434Z,34.55
2022-08-05T15:02:15.062Z,34.40
2022-08-05T15:04:47.927Z,34.25
2022-08-05T15:08:06.214Z,34.47
2022-08-05T15:13:06.245Z,34.56
2022-08-05T15:15:55.609Z,34.98
2022-08-05T15:18:25.278Z,35.00
2022-08-05T15:20:53.897Z,35.40
2022-08-05T15:23:22.983Z,35.64
2022-08-05T15:25:55.761Z,35.67
2022-08-05T15:28:28.025Z,35.84
2022-08-05T15:30:56.976Z,36.00
2022-08-05T15:34:19.280Z,37.14
2022-08-05T15:36:17.447Z,38.63
2022-08-05T15:40:39.674Z,39.60
2022-08-05T15:41:58.268Z,40.46
2022-08-05T15:44:30.965Z,41.54
2022-08-05T15:47:00.471Z,41.89
2022-08-05T15:49:47.896Z,42.63
2022-08-05T15:52:52.305Z,43.57
2022-08-05T15:55:08.185Z,43.95
2022-08-05T15:57:39.223Z,44.25
2022-08-05T16:00:12.110Z,44.56
2022-08-05T16:02:41.344Z,44.86
2022-08-05T16:05:12.169Z,45.06
2022-08-05T16:07:46.349Z,45.43
2022-08-05T16:10:15.357Z,46.02
2022-08-05T16:12:45.857Z,46.32
2022-08-05T16:15:18.753Z,46.74
2022-08-05T16:17:58.057Z,46.95
2022-08-05T16:20:27.992Z,47.51
2022-08-05T16:22:57.405Z,47.83
2022-08-05T16:25:32.134Z,48.09
2022-08-05T16:28:05.436Z,48.20
2022-08-05T16:30:36.436Z,48.82
2022-08-05T16:33:05.444Z,48.92
2022-08-05T16:35:42.066Z,49.19
2022-08-05T16:38:18.822Z,49.31
2022-08-05T16:40:59.807Z,50.09
2022-08-05T16:43:32.015Z,50.15
2022-08-05T16:46:24.046Z,50.37
2022-08-05T16:48:52.573Z,50.44
2022-08-05T16:51:21.638Z,50.53
2022-08-05T16:54:04.808Z,50.44
2022-08-05T16:56:41.503Z,50.67
2022-08-05T16:59:11.876Z,50.67
2022-08-05T17:01:54.623Z,50.79
2022-08-05T17:04:27.466Z,50.72
2022-08-05T17:07:38.841Z,50.48
2022-08-05T17:10:07.583Z,50.44
2022-08-05T17:12:51.190Z,50.60
2022-08-05T17:15:21.382Z,50.56
2022-08-05T17:17:54.456Z,50.46
2022-08-05T17:20:25.083Z,50.44
2022-08-05T17:22:55.780Z,50.69
2022-08-05T17:25:39.517Z,50.85
2022-08-05T17:28:10.051Z,50.87
2022-08-05T17:30:42.639Z,50.77
2022-08-05T17:33:23.193Z,50.97
2022-08-05T17:36:07.741Z,50.85
2022-08-05T17:38:39.774Z,51.14
2022-08-05T17:41:11.551Z,50.80
2022-08-05T17:43:54.356Z,51.16
2022-08-05T17:47:23.710Z,51.24
2022-08-05T17:50:03.466Z,50.96
2022-08-05T17:52:33.898Z,50.65
2022-08-05T17:55:03.314Z,51.09
2022-08-05T17:57:54.635Z,50.88
2022-08-05T18:00:50.700Z,51.17
2022-08-05T18:03:59.023Z,51.02
2022-08-05T18:06:31.778Z,50.78
2022-08-05T18:09:03.688Z,50.88
2022-08-05T18:11:34.760Z,50.57
2022-08-05T18:19:36.555Z,50.64
2022-08-05T18:22:11.579Z,50.68
2022-08-05T18:32:05.352Z,51.59
2022-08-05T18:34:40.612Z,51.89
2022-08-05T18:37:12.159Z,52.40
2022-08-05T18:40:31.757Z,52.19
2022-08-05T18:42:30.532Z,52.45
2022-08-05T18:45:00.153Z,52.37
2022-08-05T18:47:29.134Z,52.70
2022-08-05T18:53:16.747Z,52.59
2022-08-05T18:55:51.193Z,52.82
2022-08-05T18:58:27.295Z,52.72
2022-08-05T19:00:58.069Z,53.00
2022-08-05T19:03:53.319Z,53.17
2022-08-05T19:06:21.722Z,53.08
2022-08-05T19:09:00.253Z,53.48
2022-08-05T19:11:37.061Z,54.25
2022-08-05T19:14:44.564Z,54.24
2022-08-05T19:17:23.177Z,54.84
2022-08-05T19:20:46.745Z,56.10
2022-08-05T19:24:04.119Z,55.68
2022-08-05T19:26:11.172Z,55.75
2022-08-05T19:28:43.436Z,56.03
2022-08-05T19:31:17.760Z,56.13
2022-08-05T19:33:56.416Z,55.99
2022-08-05T19:36:26.461Z,56.31
2022-08-05T19:38:59.094Z,56.40
2022-08-05T19:42:05.783Z,56.40
2022-08-05T19:44:22.452Z,56.36
2022-08-05T19:46:52.809Z,56.45
2022-08-05T19:49:25.687Z,56.64
2022-08-05T19:52:05.667Z,57.09
2022-08-05T19:58:07.069Z,57.38
2022-08-05T20:02:04.968Z,57.47
2022-08-05T20:05:24.441Z,57.34
2022-08-05T20:07:58.822Z,57.01
2022-08-05T20:10:27.927Z,57.14
2022-08-05T20:12:58.922Z,56.99
2022-08-05T20:15:52.277Z,57.51
2022-08-05T20:18:33.156Z,57.90
2022-08-05T20:21:08.157Z,57.78
2022-08-05T20:23:51.168Z,57.71
2022-08-05T20:26:26.218Z,57.70
2022-08-05T20:28:57.206Z,57.60
2022-08-05T20:31:42.094Z,57.60
2022-08-05T20:34:19.513Z,58.07
2022-08-05T20:36:51.448Z,57.96
2022-08-05T20:39:21.766Z,58.12
2022-08-05T20:41:51.708Z,58.51
2022-08-05T20:44:29.532Z,58.49
2022-08-05T20:47:02.158Z,58.29
2022-08-05T20:49:39.466Z,58.44
2022-08-05T20:52:12.383Z,58.51
2022-08-05T20:55:55.623Z,58.35
2022-08-05T20:57:44.001Z,58.56
2022-08-05T21:00:41.248Z,58.39
2022-08-05T21:03:08.134Z,58.38
2022-08-05T21:05:53.625Z,58.51
2022-08-05T21:08:41.907Z,58.71
2022-08-05T21:12:06.969Z,58.31
2022-08-05T21:14:03.672Z,57.80
2022-08-05T21:16:34.750Z,57.40
2022-08-05T21:19:03.772Z,57.39
2022-08-05T21:21:39.639Z,57.44
2022-08-05T21:24:15.477Z,57.22
2022-08-05T21:26:53.543Z,56.98
2022-08-05T21:29:31.758Z,56.88
2022-08-05T21:32:02.292Z,56.86
2022-08-05T21:34:31.702Z,56.81
2022-08-05T21:37:01.857Z,56.71
2022-08-05T21:39:34.577Z,56.91
2022-08-05T21:42:04.085Z,56.81
2022-08-05T21:44:33.254Z,56.92
2022-08-05T21:47:02.428Z,56.90
2022-08-05T21:49:59.550Z,57.00
2022-08-05T21:52:27.451Z,57.18
2022-08-05T21:55:06.739Z,57.24
2022-08-05T21:57:35.735Z,57.35
2022-08-05T22:00:10.942Z,57.23
2022-08-05T22:02:41.570Z,57.25
2022-08-05T22:05:11.859Z,57.10
2022-08-05T22:08:02.018Z,56.96
2022-08-05T22:10:32.906Z,57.11
2022-08-05T22:14:05.061Z,56.92
2022-08-05T22:16:01.991Z,57.01
2022-08-05T22:18:39.887Z,56.95
2022-08-05T22:21:18.786Z,57.02
2022-08-05T22:24:08.983Z,57.34
2022-08-05T22:27:00.943Z,57.64
2022-08-05T22:29:35.445Z,57.63
2022-08-05T22:32:03.925Z,57.44
2022-08-05T22:34:33.127Z,57.51
2022-08-05T22:37:03.903Z,57.32
2022-08-05T22:39:34.795Z,57.45
2022-08-05T22:42:11.592Z,57.50
2022-08-05T22:44:48.364Z,57.50
2022-08-05T22:47:29.668Z,57.47
2022-08-05T22:50:20.848Z,57.53
2022-08-05T22:52:49.583Z,57.34
2022-08-05T22:55:21.493Z,57.34
2022-08-05T22:57:52.688Z,57.30
2022-08-05T23:00:23.310Z,57.30
2022-08-05T23:02:53.612Z,57.31
2022-08-05T23:05:23.173Z,57.31
2022-08-05T23:07:52.355Z,57.47
2022-08-05T23:10:23.880Z,57.41
2022-08-05T23:12:56.005Z,57.82
2022-08-05T23:15:29.030Z,57.54
2022-08-05T23:18:02.295Z,57.69
2022-08-05T23:20:33.290Z,57.74
2022-08-05T23:23:08.352Z,57.71
2022-08-05T23:25:52.910Z,57.76
2022-08-05T23:28:26.892Z,57.79
2022-08-05T23:31:02.342Z,57.91
2022-08-05T23:34:03.855Z,57.69
2022-08-05T23:36:38.518Z,57.79
2022-08-05T23:39:09.615Z,57.75
2022-08-05T23:41:41.032Z,57.80
2022-08-05T23:44:19.662Z,57.80
2022-08-05T23:46:51.354Z,57.70
2022-08-05T23:49:23.780Z,57.67
2022-08-05T23:52:19.685Z,57.78
2022-08-05T23:54:51.152Z,57.96
2022-08-05T23:57:20.018Z,57.89
